createdAt,value
2022-12-26T00:02:30.494Z,4.08
2022-12-26T00:07:36.464Z,4.06
2022-12-26T00:12:42.252Z,4.03
2022-12-26T00:17:48.105Z,4.00
2022-12-26T00:22:54.959Z,3.98
2022-12-26T00:28:00.803Z,3.95
2022-12-26T00:33:07.000Z,3.93
2022-12-26T00:38:12.956Z,3.92
2022-12-26T00:43:18.846Z,3.91
2022-12-26T00:48:24.646Z,3.92
2022-12-26T00:53:32.420Z,3.96
2022-12-26T00:58:42.147Z,3.96
2022-12-26T01:03:50.585Z,3.95
2022-12-26T01:08:56.700Z,3.95
2022-12-26T01:14:02.324Z,3.97
2022-12-26T01:19:08.578Z,3.96
2022-12-26T01:24:14.416Z,3.97
2022-12-26T01:29:20.482Z,4.02
2022-12-26T01:34:26.330Z,4.05
2022-12-26T01:39:32.444Z,4.05
2022-12-26T01:45:05.094Z,4.05
2022-12-26T01:50:26.044Z,4.02
2022-12-26T01:55:33.799Z,4.02
2022-12-26T02:00:40.242Z,4.03
2022-12-26T02:05:46.374Z,4.01
2022-12-26T02:10:57.609Z,4.02
2022-12-26T02:16:04.415Z,4.06
2022-12-26T02:21:38.448Z,4.08
2022-12-26T02:27:28.088Z,4.09
2022-12-26T02:33:03.919Z,4.09
2022-12-26T02:38:23.345Z,4.06
2022-12-26T02:43:37.708Z,4.04
2022-12-26T02:48:55.128Z,4.05
2022-12-26T02:54:29.577Z,4.03
2022-12-26T03:00:05.461Z,3.99
2022-12-26T03:05:37.561Z,3.98
2022-12-26T03:11:02.627Z,3.96
2022-12-26T03:16:31.719Z,3.94
2022-12-26T03:21:42.778Z,3.90
2022-12-26T03:26:52.988Z,3.86
2022-12-26T03:31:59.695Z,3.82
2022-12-26T03:37:26.307Z,3.80
2022-12-26T03:43:19.400Z,3.76
2022-12-26T03:48:51.370Z,3.73
2022-12-26T03:54:24.625Z,3.73
2022-12-26T03:59:58.434Z,3.71
2022-12-26T04:05:26.760Z,3.66
2022-12-26T04:10:55.952Z,3.62
2022-12-26T04:16:23.722Z,3.61
2022-12-26T04:21:55.861Z,3.60
2022-12-26T04:27:26.555Z,3.59
2022-12-26T04:32:57.067Z,3.60
2022-12-26T04:38:24.195Z,3.60
2022-12-26T04:43:51.521Z,3.56
2022-12-26T04:49:17.492Z,3.55
2022-12-26T04:54:23.452Z,3.55
2022-12-26T04:59:29.149Z,3.53
2022-12-26T05:04:54.284Z,3.51
2022-12-26T05:10:00.226Z,3.52
2022-12-26T05:15:07.295Z,3.55
2022-12-26T05:20:33.339Z,3.54
2022-12-26T05:26:01.061Z,3.56
2022-12-26T05:31:08.028Z,3.59
2022-12-26T05:36:15.029Z,3.60
2022-12-26T05:41:20.786Z,3.62
2022-12-26T05:46:26.764Z,3.63
2022-12-26T05:51:32.857Z,3.64
2022-12-26T05:56:40.902Z,3.65
2022-12-26T06:01:49.055Z,3.66
2022-12-26T06:06:56.748Z,3.71
2022-12-26T06:12:02.687Z,3.75
2022-12-26T06:17:08.425Z,3.75
2022-12-26T06:22:14.169Z,3.74
2022-12-26T06:27:19.956Z,3.74
2022-12-26T06:32:26.037Z,3.74
2022-12-26T06:37:32.679Z,3.75
2022-12-26T06:42:38.700Z,3.74
2022-12-26T06:47:45.240Z,3.71
2022-12-26T06:52:51.076Z,3.72
2022-12-26T06:57:56.899Z,3.72
2022-12-26T07:03:02.738Z,3.71
2022-12-26T07:08:09.288Z,3.72
2022-12-26T07:13:14.955Z,3.73
2022-12-26T07:18:20.933Z,3.73
2022-12-26T07:23:27.099Z,3.76
2022-12-26T07:28:33.116Z,3.78
2022-12-26T07:33:39.079Z,3.79
2022-12-26T07:38:45.071Z,3.80
2022-12-26T07:43:51.045Z,3.84
2022-12-26T07:48:56.805Z,3.91
2022-12-26T07:54:08.903Z,3.97
2022-12-26T07:59:18.130Z,4.00
2022-12-26T08:04:23.892Z,3.99
2022-12-26T08:09:29.582Z,3.99
2022-12-26T08:14:36.626Z,4.02
2022-12-26T08:19:42.493Z,4.01
2022-12-26T08:24:48.224Z,4.00
2022-12-26T08:29:53.863Z,4.02
2022-12-26T08:34:59.620Z,4.04
2022-12-26T08:40:26.816Z,4.05
2022-12-26T08:45:42.353Z,4.12
2022-12-26T08:50:48.193Z,4.16
2022-12-26T08:55:55.057Z,4.17
2022-12-26T09:01:10.117Z,4.25
2022-12-26T09:06:17.717Z,4.41
2022-12-26T09:11:27.015Z,4.55
2022-12-26T09:16:40.030Z,4.65
2022-12-26T09:21:48.546Z,4.77
2022-12-26T09:26:54.180Z,4.82
2022-12-26T09:32:00.899Z,4.78
2022-12-26T09:37:06.792Z,4.76
2022-12-26T09:42:28.383Z,4.81
2022-12-26T09:47:37.746Z,4.90
2022-12-26T09:52:48.761Z,4.91
2022-12-26T09:57:59.388Z,4.90
2022-12-26T10:03:08.081Z,4.94
2022-12-26T10:08:30.578Z,5.01
2022-12-26T10:13:43.839Z,5.12
2022-12-26T10:18:58.962Z,5.20
2022-12-26T10:24:15.890Z,5.31
2022-12-26T10:29:25.879Z,5.42
2022-12-26T10:34:37.088Z,5.50
2022-12-26T10:39:47.902Z,5.59
2022-12-26T10:44:53.754Z,5.66
2022-12-26T10:50:00.139Z,5.79
2022-12-26T10:55:28.144Z,5.99
2022-12-26T11:00:35.820Z,6.17
2022-12-26T11:11:21.068Z,6.46
2022-12-26T11:16:29.661Z,6.56
2022-12-26T11:21:35.610Z,6.66
2022-12-26T11:26:41.745Z,6.68
2022-12-26T11:31:57.151Z,6.78
2022-12-26T11:37:05.654Z,6.91
2022-12-26T11:42:19.069Z,7.09
2022-12-26T11:47:28.926Z,7.27
2022-12-26T11:52:41.227Z,7.29
2022-12-26T11:58:02.092Z,7.34
2022-12-26T12:03:16.579Z,7.49
2022-12-26T12:08:44.061Z,7.70
2022-12-26T12:14:06.075Z,7.71
2022-12-26T12:19:36.019Z,7.66
2022-12-26T12:24:53.152Z,7.58
2022-12-26T12:30:15.503Z,7.61
2022-12-26T12:35:41.227Z,7.71
2022-12-26T12:40:57.564Z,7.88
2022-12-26T12:46:17.446Z,8.07
2022-12-26T12:51:42.275Z,8.26
2022-12-26T12:57:02.156Z,8.44
2022-12-26T13:02:20.520Z,8.59
2022-12-26T13:07:31.473Z,8.68
2022-12-26T13:12:42.077Z,8.72
2022-12-26T13:17:53.486Z,8.76
2022-12-26T13:23:37.482Z,8.81
2022-12-26T13:28:53.351Z,8.83
2022-12-26T13:33:59.655Z,8.86
2022-12-26T13:39:34.040Z,8.88
2022-12-26T13:44:40.403Z,8.88
2022-12-26T13:49:46.653Z,8.88
2022-12-26T13:55:23.270Z,8.87
2022-12-26T14:00:45.228Z,8.85
2022-12-26T14:06:07.265Z,8.81
2022-12-26T14:11:26.822Z,8.81
2022-12-26T14:16:44.015Z,8.85
2022-12-26T14:21:59.472Z,8.84
2022-12-26T14:27:25.106Z,8.82
2022-12-26T14:32:45.470Z,8.84
2022-12-26T14:38:05.170Z,8.89
2022-12-26T14:43:29.152Z,8.90
2022-12-26T14:48:57.344Z,8.91
2022-12-26T14:54:51.254Z,8.93
2022-12-26T15:00:28.799Z,8.88
2022-12-26T15:05:37.864Z,8.77
2022-12-26T15:11:26.131Z,8.72
2022-12-26T15:16:56.536Z,8.71
2022-12-26T15:22:25.321Z,8.71
2022-12-26T15:28:07.480Z,8.73
2022-12-26T15:33:23.894Z,8.79
2022-12-26T15:38:40.447Z,8.82
2022-12-26T15:43:57.733Z,8.83
2022-12-26T15:49:32.934Z,8.84
2022-12-26T15:55:04.910Z,8.84
2022-12-26T16:00:15.608Z,8.82
2022-12-26T16:05:32.590Z,8.83
2022-12-26T16:10:39.494Z,8.85
2022-12-26T16:15:49.806Z,8.87
2022-12-26T16:21:17.494Z,8.81
2022-12-26T16:26:29.008Z,8.81
2022-12-26T16:31:34.998Z,8.85
2022-12-26T16:36:42.053Z,8.84
2022-12-26T16:42:02.598Z,8.80
2022-12-26T16:47:13.507Z,8.78
2022-12-26T16:52:33.833Z,8.78
2022-12-26T16:57:44.579Z,8.76
2022-12-26T17:02:57.348Z,8.74
2022-12-26T17:08:06.009Z,8.77
2022-12-26T17:13:21.443Z,8.78
2022-12-26T17:18:41.431Z,8.74
2022-12-26T17:24:05.268Z,8.72
2022-12-26T17:29:37.265Z,8.70
2022-12-26T17:34:43.757Z,8.67
2022-12-26T17:40:02.410Z,8.64
2022-12-26T17:45:14.508Z,8.62
2022-12-26T17:50:21.402Z,8.61
2022-12-26T17:55:28.008Z,8.57
2022-12-26T18:00:33.958Z,8.53
2022-12-26T18:05:40.756Z,8.54
2022-12-26T18:10:46.516Z,8.54
2022-12-26T18:15:53.554Z,8.54
2022-12-26T18:20:59.233Z,8.54
2022-12-26T18:26:10.844Z,8.54
2022-12-26T18:31:17.672Z,8.55
2022-12-26T18:36:31.192Z,8.54
2022-12-26T18:41:37.013Z,8.56
2022-12-26T18:46:42.611Z,8.60
2022-12-26T18:51:48.332Z,8.61
2022-12-26T18:56:54.088Z,8.58
2022-12-26T19:02:00.384Z,8.55
2022-12-26T19:07:06.311Z,8.56
2022-12-26T19:12:12.316Z,8.55
2022-12-26T19:17:18.556Z,8.54
2022-12-26T19:22:24.666Z,8.52
2022-12-26T19:27:30.400Z,8.53
2022-12-26T19:32:36.269Z,8.52
2022-12-26T19:37:42.465Z,8.50
2022-12-26T19:42:48.417Z,8.52
2022-12-26T19:47:54.485Z,8.57
2022-12-26T19:53:00.343Z,8.59
2022-12-26T19:58:06.090Z,8.56
2022-12-26T20:03:12.087Z,8.53
2022-12-26T20:08:17.958Z,8.49
2022-12-26T20:13:23.737Z,8.43
2022-12-26T20:18:29.535Z,8.41
2022-12-26T20:23:35.967Z,8.43
2022-12-26T20:28:42.334Z,8.43
2022-12-26T20:33:50.067Z,8.40
2022-12-26T20:38:58.520Z,8.40
2022-12-26T20:44:04.524Z,8.45
2022-12-26T20:49:11.017Z,8.44
2022-12-26T20:54:17.441Z,8.39
2022-12-26T20:59:23.823Z,8.38
2022-12-26T21:04:29.564Z,8.40
2022-12-26T21:09:36.839Z,8.40
2022-12-26T21:14:45.409Z,8.39
2022-12-26T21:19:51.072Z,8.39
2022-12-26T21:24:56.823Z,8.40
2022-12-26T21:30:02.719Z,8.37
2022-12-26T21:35:08.935Z,8.35
2022-12-26T21:40:15.264Z,8.34
2022-12-26T21:45:21.993Z,8.31
2022-12-26T21:50:27.956Z,8.27
2022-12-26T21:55:37.820Z,8.26
2022-12-26T22:00:44.795Z,8.26
2022-12-26T22:05:50.883Z,8.19
2022-12-26T22:11:15.063Z,8.10
2022-12-26T22:16:20.809Z,8.01
2022-12-26T22:21:27.056Z,7.91
2022-12-26T22:26:32.872Z,7.79
2022-12-26T22:31:39.762Z,7.68
2022-12-26T22:36:45.770Z,7.60
2022-12-26T22:41:51.442Z,7.50
2022-12-26T22:46:57.883Z,7.38
2022-12-26T22:52:03.789Z,7.29
2022-12-26T22:57:09.644Z,7.21
2022-12-26T23:02:15.490Z,7.18
2022-12-26T23:07:23.470Z,7.24
2022-12-26T23:12:45.513Z,7.31
2022-12-26T23:18:25.262Z,7.36
2022-12-26T23:23:32.480Z,7.38
2022-12-26T23:28:56.995Z,7.40
2022-12-26T23:34:09.528Z,7.39
2022-12-26T23:39:15.460Z,7.37
2022-12-26T23:44:21.799Z,7.37
2022-12-26T23:49:27.759Z,7.41
2022-12-26T23:54:33.517Z,7.42
2022-12-26T23:59:39.408Z,7.44
